YBIA weather

Bingara Airport
New South Wales, Australia

Public forecast

Using degrees Celsius for public forecast. Weather courtesy of forecast.io.

Closest aviation weather report (METAR) to Bingara Airport

Closest report is Moree Airport, 40.2 nm (74.4 km) WNW. Retrieved 2020/01/22 10:00 UTC (32 minutes ago):

YMOR 221000Z AUTO 01021KT 9999 // NCD 32/15 Q1007

Closest aviation forecast (TAF) to Bingara Airport

Forecast is more than 6 hours old.

Closest forecast is Tamworth Airport, 78.8 nm (145.9 km) SSE. Retrieved 2020-01-22 00:36 UTC (10 hours ago):

TAF YSTW 212240Z 2200/2218 03005KT CAVOK BECMG 2200/2202 32012KT CAVOK BECMG 2205/2207 03010KT CAVOK